Time;durP1;ratioP1;P1;durP2;ratioP2;P2;SDS_P1;SDS_P2;PMS_P1;PMS_P2;Temp;Humidity;BMP_temperature;BMP_pressure;BME280_temperature;BME280_humidity;BME280_pressure;Samples;Min_cycle;Max_cycle;Signal;HPM_P1;HPM_P2
2024/02/12 00:00:54;;;;;;;0.57;0.57;;;8.20;99.90;;;;;;4911274;29;20043;-82
2024/02/12 00:03:20;;;;;;;0.30;0.30;;;8.30;99.90;;;;;;4934570;29;20032;-81
2024/02/12 00:05:47;;;;;;;0.10;0.10;;;8.20;99.90;;;;;;4917737;29;20039;-81
2024/02/12 00:08:15;;;;;;;1.85;0.93;;;8.30;99.90;;;;;;4913458;29;20500;-82
2024/02/12 00:10:42;;;;;;;0.28;0.28;;;8.20;99.90;;;;;;4933248;29;20389;-82
2024/02/12 00:13:08;;;;;;;0.10;0.10;;;8.20;99.90;;;;;;4884962;29;1079129;-82
2024/02/12 00:15:35;;;;;;;0.10;0.10;;;8.20;99.90;;;;;;4941683;29;20044;-82
2024/02/12 00:18:02;;;;;;;0.30;0.30;;;8.20;99.90;;;;;;4910779;29;20043;-83
2024/02/12 00:20:29;;;;;;;0.25;0.25;;;8.20;99.90;;;;;;4943860;29;20035;-82
2024/02/12 00:22:56;;;;;;;0.10;0.10;;;8.20;1.00;;;;;;4934895;29;20040;-82
2024/02/12 00:25:24;;;;;;;0.20;0.20;;;8.20;1.00;;;;;;4908547;29;20040;-82
2024/02/12 00:27:51;;;;;;;0.10;0.10;;;8.20;1.00;;;;;;4927708;29;20047;-82
2024/02/12 00:30:18;;;;;;;0.10;0.10;;;8.20;1.00;;;;;;4933903;29;20043;-82
2024/02/12 00:32:44;;;;;;;0.30;0.30;;;8.20;1.00;;;;;;4945838;29;20051;-82
2024/02/12 00:35:11;;;;;;;0.10;0.10;;;8.20;1.00;;;;;;4940393;29;20043;-82
2024/02/12 00:37:37;;;;;;;0.10;0.10;;;8.10;1.00;;;;;;4945845;29;20469;-81
2024/02/12 00:40:08;;;;;;;0.10;0.10;;;8.20;1.00;;;;;;4920760;29;20035;-83
2024/02/12 00:42:38;;;;;;;0.10;0.10;;;8.20;1.00;;;;;;4934290;29;20054;-83
2024/02/12 00:45:14;;;;;;;0.22;0.22;;;8.10;1.00;;;;;;4938458;29;20054;-84
2024/02/12 00:47:40;;;;;;;0.10;0.10;;;8.20;1.00;;;;;;4928208;29;20040;-81
2024/02/12 00:50:07;;;;;;;0.40;0.40;;;8.20;1.00;;;;;;4925810;29;20019;-84
2024/02/12 00:52:38;;;;;;;0.20;0.20;;;8.10;1.00;;;;;;4938661;29;20067;-83
2024/02/12 00:55:06;;;;;;;0.10;0.10;;;8.20;1.00;;;;;;4926720;29;20409;-83
2024/02/12 00:57:34;;;;;;;0.57;0.55;;;8.10;1.00;;;;;;4920986;29;20031;-82
2024/02/12 01:00:10;;;;;;;0.10;0.10;;;8.10;1.00;;;;;;4939029;29;20043;-80
2024/02/12 01:02:37;;;;;;;0.73;0.40;;;8.10;1.00;;;;;;4937494;29;20047;-82
2024/02/12 01:05:03;;;;;;;0.10;0.10;;;8.10;1.00;;;;;;4929402;29;20042;-89
2024/02/12 01:07:29;;;;;;;0.32;0.32;;;8.10;1.00;;;;;;4918994;29;20055;-83
2024/02/12 01:09:55;;;;;;;0.10;0.10;;;8.20;1.00;;;;;;4919404;29;20047;-83
2024/02/12 01:12:23;;;;;;;0.38;0.38;;;8.20;1.00;;;;;;4935059;29;20052;-80
2024/02/12 01:14:50;;;;;;;0.70;0.52;;;8.20;1.00;;;;;;4935338;29;20040;-82
2024/02/12 01:17:17;;;;;;;0.10;0.10;;;8.20;1.00;;;;;;4944972;29;20057;-81
2024/02/12 01:19:45;;;;;;;0.15;0.15;;;8.20;1.00;;;;;;4935401;29;20047;-81
2024/02/12 01:22:13;;;;;;;0.10;0.10;;;8.20;1.00;;;;;;4934315;29;20036;-83
2024/02/12 01:24:39;;;;;;;0.40;0.40;;;8.20;1.00;;;;;;4933269;29;20027;-82
2024/02/12 01:27:05;;;;;;;0.10;0.10;;;8.20;1.00;;;;;;4936884;29;20035;-86
2024/02/12 01:29:50;;;;;;;0.20;0.20;;;8.20;1.00;;;;;;4923572;29;20040;-82
2024/02/12 01:32:16;;;;;;;0.28;0.28;;;8.20;1.00;;;;;;4938775;29;20048;-82
2024/02/12 01:34:45;;;;;;;0.20;0.20;;;8.20;1.00;;;;;;4937758;29;20046;-82
2024/02/12 01:37:11;;;;;;;0.10;0.10;;;8.20;1.00;;;;;;4943998;28;20036;-83
2024/02/12 01:39:38;;;;;;;0.10;0.10;;;8.10;38.30;;;;;;4934168;29;20047;-82
2024/02/12 01:42:14;;;;;;;0.15;0.15;;;8.00;88.10;;;;;;4960809;29;20039;-83
2024/02/12 01:44:48;;;;;;;0.30;0.30;;;8.00;94.90;;;;;;4923269;29;20054;-83
2024/02/12 01:47:15;;;;;;;0.20;0.20;;;8.00;99.90;;;;;;4924202;29;20058;-83
2024/02/12 01:49:43;;;;;;;0.32;0.32;;;8.00;99.90;;;;;;4925234;29;20043;-83
2024/02/12 01:52:13;;;;;;;0.25;0.25;;;8.00;99.90;;;;;;4911876;29;20121;-83
2024/02/12 01:54:41;;;;;;;1.48;0.63;;;8.00;99.90;;;;;;4935134;29;20044;-83
2024/02/12 01:57:09;;;;;;;0.20;0.20;;;8.00;99.90;;;;;;4917138;29;20052;-88
2024/02/12 01:59:38;;;;;;;1.10;0.82;;;8.00;99.90;;;;;;4942618;29;20031;-83
2024/02/12 02:02:04;;;;;;;0.57;0.45;;;8.10;95.80;;;;;;4942736;29;20039;-82
2024/02/12 02:04:30;;;;;;;0.32;0.32;;;8.10;73.40;;;;;;4934924;29;20038;-81
2024/02/12 02:06:57;;;;;;;0.70;0.70;;;8.20;34.70;;;;;;4936478;29;20031;-83
2024/02/12 02:09:23;;;;;;;0.10;0.10;;;8.20;19.80;;;;;;4936441;29;20028;-83
2024/02/12 02:11:50;;;;;;;0.10;0.10;;;8.20;14.90;;;;;;4928496;29;20044;-83
2024/02/12 02:14:16;;;;;;;0.10;0.10;;;8.20;8.40;;;;;;4925000;29;20047;-83
2024/02/12 02:16:42;;;;;;;1.45;1.10;;;8.20;3.90;;;;;;4942840;29;20039;-83
2024/02/12 02:19:09;;;;;;;0.10;0.10;;;8.20;5.60;;;;;;4934651;29;20385;-82
2024/02/12 02:21:36;;;;;;;1.95;0.90;;;8.20;11.70;;;;;;4951950;29;20473;-83
2024/02/12 02:24:03;;;;;;;0.17;0.17;;;8.20;12.80;;;;;;4936229;29;20035;-82
2024/02/12 02:26:29;;;;;;;0.10;0.10;;;8.20;13.70;;;;;;4930668;29;20046;-81
2024/02/12 02:28:58;;;;;;;0.10;0.10;;;8.20;12.60;;;;;;4941906;29;20036;-82
2024/02/12 02:31:24;;;;;;;0.10;0.10;;;8.20;9.00;;;;;;4939730;29;20046;-83
2024/02/12 02:33:51;;;;;;;0.10;0.10;;;8.20;2.80;;;;;;4945173;29;20039;-83
2024/02/12 02:36:18;;;;;;;0.10;0.10;;;8.20;3.40;;;;;;4937071;29;20035;-84
2024/02/12 02:38:45;;;;;;;0.10;0.10;;;8.20;5.40;;;;;;4936158;29;20496;-83
2024/02/12 02:41:11;;;;;;;0.40;0.40;;;8.20;4.80;;;;;;4945350;29;20034;-86
2024/02/12 02:43:38;;;;;;;0.10;0.10;;;8.20;1.00;;;;;;4947453;28;20385;-82
2024/02/12 02:46:04;;;;;;;0.10;0.10;;;8.20;1.00;;;;;;4911546;29;20047;-82
2024/02/12 02:48:32;;;;;;;0.65;0.65;;;8.20;8.10;;;;;;4938780;29;20032;-82
2024/02/12 02:50:58;;;;;;;0.10;0.10;;;8.20;25.30;;;;;;4948375;29;20031;-83
2024/02/12 02:53:24;;;;;;;0.20;0.20;;;8.20;51.00;;;;;;4925937;29;20485;-83
2024/02/12 02:55:51;;;;;;;0.17;0.17;;;8.10;90.70;;;;;;4939607;29;20043;-83
2024/02/12 02:58:17;;;;;;;0.13;0.13;;;8.00;99.90;;;;;;4938445;29;20035;-82
2024/02/12 03:00:43;;;;;;;0.10;0.10;;;8.00;99.90;;;;;;4936897;29;20032;-83
2024/02/12 03:03:10;;;;;;;0.10;0.10;;;8.00;99.90;;;;;;4938314;29;20042;-84
2024/02/12 03:05:36;;;;;;;0.10;0.10;;;7.90;99.90;;;;;;4939742;29;20039;-83
2024/02/12 03:08:08;;;;;;;0.28;0.28;;;7.90;99.90;;;;;;4939387;29;20374;-82
2024/02/12 03:10:35;;;;;;;0.30;0.30;;;7.90;99.90;;;;;;4924278;29;20051;-81
2024/02/12 03:13:04;;;;;;;0.10;0.10;;;7.90;99.90;;;;;;4929187;29;20055;-81
2024/02/12 03:15:33;;;;;;;0.10;0.10;;;7.90;99.90;;;;;;4924481;29;20158;-83
2024/02/12 03:17:59;;;;;;;0.10;0.10;;;7.90;99.90;;;;;;4938321;29;20454;-84
2024/02/12 03:20:26;;;;;;;0.10;0.10;;;7.90;99.90;;;;;;4943757;29;20032;-83
2024/02/12 03:22:53;;;;;;;0.22;0.22;;;7.90;99.90;;;;;;4939367;28;20042;-83
2024/02/12 03:25:20;;;;;;;0.10;0.10;;;7.90;99.90;;;;;;4936467;29;20051;-83
2024/02/12 03:27:49;;;;;;;0.25;0.25;;;7.90;99.90;;;;;;4941424;29;20039;-84
2024/02/12 03:30:15;;;;;;;0.30;0.30;;;7.80;99.90;;;;;;4938918;29;20035;-84
2024/02/12 03:32:42;;;;;;;0.32;0.28;;;7.80;99.90;;;;;;4954976;29;20042;-83
2024/02/12 03:35:08;;;;;;;17.52;0.73;;;7.80;99.90;;;;;;4946367;29;20038;-84
2024/02/12 03:37:35;;;;;;;0.10;0.10;;;7.80;99.90;;;;;;4903970;29;20043;-84
2024/02/12 03:40:03;;;;;;;0.22;0.22;;;7.80;99.90;;;;;;4938999;29;20043;-83
2024/02/12 03:42:29;;;;;;;0.20;0.20;;;7.90;99.90;;;;;;4956301;28;20047;-84
2024/02/12 03:44:55;;;;;;;0.30;0.30;;;7.80;99.90;;;;;;4932544;29;20046;-84
2024/02/12 03:47:27;;;;;;;0.10;0.10;;;7.90;99.90;;;;;;4920736;29;20047;-82
2024/02/12 04:00:56;;;;;;;0.63;0.63;;;8.30;1.00;;;;;;4934146;29;20448;-83
2024/02/12 04:03:22;;;;;;;0.17;0.17;;;8.30;1.00;;;;;;4914115;29;20514;-83
2024/02/12 04:05:49;;;;;;;0.20;0.20;;;8.30;1.00;;;;;;4922814;29;20047;-83
2024/02/12 04:08:15;;;;;;;0.43;0.40;;;8.30;1.00;;;;;;4946421;28;20385;-83
2024/02/12 04:10:42;;;;;;;0.10;0.10;;;8.30;1.00;;;;;;4944236;29;20046;-83
2024/02/12 04:13:09;;;;;;;0.50;0.40;;;8.30;1.00;;;;;;4934081;29;20040;-82
2024/02/12 04:15:40;;;;;;;0.55;0.38;;;8.30;1.00;;;;;;4919134;29;20038;-83
2024/02/12 04:18:08;;;;;;;0.20;0.20;;;8.30;1.00;;;;;;4950103;29;20047;-83
2024/02/12 04:20:38;;;;;;;0.75;0.40;;;8.40;99.90;;;;;;4947005;28;20040;-84
2024/02/12 04:23:11;;;;;;;0.55;0.55;;;8.40;99.90;;;;;;4955459;28;20038;-83
2024/02/12 04:25:37;;;;;;;0.10;0.10;;;8.40;99.90;;;;;;4930041;29;20046;-83
2024/02/12 04:28:04;;;;;;;1.65;0.95;;;8.40;99.90;;;;;;4921583;29;20054;-81
2024/02/12 04:30:31;;;;;;;0.10;0.10;;;8.40;99.90;;;;;;4934826;29;20040;-82
2024/02/12 04:32:59;;;;;;;0.40;0.40;;;8.40;99.90;;;;;;4938885;29;20059;-83
2024/02/12 04:35:28;;;;;;;0.75;0.28;;;8.40;99.90;;;;;;4913631;29;20044;-85
2024/02/12 04:37:55;;;;;;;2.78;0.68;;;8.40;99.90;;;;;;4950500;29;20388;-83
2024/02/12 04:40:24;;;;;;;0.17;0.17;;;8.40;99.90;;;;;;4937065;29;20051;-83
2024/02/12 04:42:54;;;;;;;0.10;0.10;;;8.40;99.90;;;;;;4923248;29;20055;-82
2024/02/12 04:45:20;;;;;;;0.17;0.17;;;8.50;99.90;;;;;;4933944;29;20052;-83
2024/02/12 04:47:50;;;;;;;0.10;0.10;;;8.50;99.90;;;;;;4925052;29;20039;-83
2024/02/12 04:50:17;;;;;;;0.10;0.10;;;8.40;99.90;;;;;;4931190;29;20036;-85
2024/02/12 04:52:43;;;;;;;0.50;0.30;;;8.40;99.90;;;;;;4930999;29;20397;-84
2024/02/12 04:55:10;;;;;;;0.10;0.10;;;8.40;99.90;;;;;;4910585;29;20040;-83
2024/02/12 04:57:38;;;;;;;0.10;0.10;;;8.40;99.90;;;;;;4930448;29;20183;-83
2024/02/12 05:00:04;;;;;;;2.47;1.17;;;8.40;99.90;;;;;;4937615;29;20058;-84
2024/02/12 05:02:33;;;;;;;0.22;0.22;;;8.40;99.90;;;;;;4950852;28;20042;-84
2024/02/12 05:05:00;;;;;;;0.35;0.35;;;8.40;99.90;;;;;;4937125;29;20496;-84
2024/02/12 05:07:27;;;;;;;0.13;0.13;;;8.40;99.90;;;;;;4923355;29;20039;-84
2024/02/12 05:09:53;;;;;;;0.20;0.20;;;8.40;99.90;;;;;;4957688;28;20035;-84
2024/02/12 05:12:20;;;;;;;0.10;0.10;;;8.40;99.90;;;;;;4934785;29;20052;-84
2024/02/12 05:14:46;;;;;;;0.20;0.20;;;8.40;99.90;;;;;;4921836;29;20051;-84
2024/02/12 05:17:13;;;;;;;0.10;0.10;;;8.40;99.90;;;;;;4940399;29;20450;-82
2024/02/12 05:22:33;;;;;;;0.22;0.15;;;8.50;99.90;;;;;;4941027;29;20040;-83
2024/02/12 05:24:59;;;;;;;0.30;0.30;;;8.50;96.40;;;;;;4946733;29;20102;-80
2024/02/12 05:27:26;;;;;;;0.10;0.10;;;8.50;99.90;;;;;;4925841;29;20038;-83
2024/02/12 05:29:58;;;;;;;1.05;0.52;;;8.50;93.00;;;;;;4931696;29;20039;-82
2024/02/12 05:32:24;;;;;;;0.10;0.10;;;8.50;79.00;;;;;;4926944;29;20044;-83
2024/02/12 05:34:51;;;;;;;0.10;0.10;;;8.50;87.80;;;;;;4918318;29;20051;-83
2024/02/12 05:37:17;;;;;;;0.40;0.40;;;8.40;98.60;;;;;;4931440;29;20047;-82
2024/02/12 05:39:46;;;;;;;0.82;0.77;;;8.50;75.10;;;;;;4935909;29;20048;-83
2024/02/12 05:42:12;;;;;;;0.43;0.43;;;8.40;83.10;;;;;;4950529;29;20058;-83
2024/02/12 05:44:38;;;;;;;0.35;0.30;;;8.40;93.50;;;;;;4936441;29;20051;-83
2024/02/12 05:47:05;;;;;;;0.30;0.30;;;8.30;97.20;;;;;;4933501;29;20396;-81
2024/02/12 05:49:33;;;;;;;0.50;0.50;;;8.30;99.90;;;;;;4925746;29;20079;-84
2024/02/12 05:51:59;;;;;;;0.10;0.10;;;8.30;98.60;;;;;;4914043;29;20047;-82
2024/02/12 05:54:26;;;;;;;0.22;0.22;;;8.30;99.90;;;;;;4933430;29;20023;-83
2024/02/12 05:56:53;;;;;;;0.47;0.47;;;8.30;89.30;;;;;;4919672;29;20385;-82
2024/02/12 05:59:19;;;;;;;0.73;0.73;;;8.20;94.20;;;;;;4911920;29;20062;-82
2024/02/12 06:01:46;;;;;;;0.60;0.60;;;8.20;90.00;;;;;;4935902;29;20039;-83
2024/02/12 06:04:13;;;;;;;0.63;0.63;;;8.20;85.60;;;;;;4914014;29;20047;-83
2024/02/12 06:06:40;;;;;;;0.40;0.40;;;8.20;82.80;;;;;;4943559;29;20054;-81
2024/02/12 06:09:07;;;;;;;0.38;0.38;;;8.20;90.10;;;;;;4936887;29;20054;-83
2024/02/12 06:11:33;;;;;;;0.40;0.40;;;8.20;69.00;;;;;;4947234;29;20058;-80
2024/02/12 06:13:59;;;;;;;0.20;0.20;;;8.20;63.40;;;;;;4921545;29;20063;-82
2024/02/12 06:16:26;;;;;;;0.80;0.80;;;8.20;72.20;;;;;;4909549;29;20059;-85
2024/02/12 06:18:52;;;;;;;0.73;0.50;;;8.10;70.10;;;;;;4932618;29;20047;-83
2024/02/12 06:21:20;;;;;;;0.43;0.43;;;8.10;74.00;;;;;;4933215;29;20031;-83
2024/02/12 06:23:46;;;;;;;1.58;0.98;;;8.10;79.70;;;;;;4924888;29;20055;-83
2024/02/12 06:26:19;;;;;;;0.20;0.20;;;8.10;68.80;;;;;;4940194;29;20044;-83
2024/02/12 06:28:47;;;;;;;0.20;0.20;;;8.10;47.30;;;;;;4922638;29;20098;-79
2024/02/12 06:31:16;;;;;;;1.67;0.63;;;8.10;41.00;;;;;;4940777;29;20035;-83
2024/02/12 06:33:43;;;;;;;1.20;0.40;;;8.10;6.20;;;;;;4929348;29;20477;-81
2024/02/12 06:36:09;;;;;;;1.48;1.38;;;8.10;17.80;;;;;;4933796;29;20031;-83
2024/02/12 06:38:35;;;;;;;0.82;0.75;;;8.10;10.40;;;;;;4911731;29;20052;-83
2024/02/12 06:41:01;;;;;;;0.20;0.20;;;8.10;17.00;;;;;;4934383;29;20042;-83
2024/02/12 06:43:27;;;;;;;0.20;0.20;;;8.00;25.50;;;;;;4949702;29;20046;-82
2024/02/12 06:45:55;;;;;;;0.10;0.10;;;8.00;32.40;;;;;;4942501;28;20036;-80
2024/02/12 06:48:21;;;;;;;0.35;0.20;;;7.90;37.10;;;;;;4915507;29;20100;-84
2024/02/12 06:50:47;;;;;;;0.30;0.30;;;7.90;46.80;;;;;;4938109;29;20040;-83
2024/02/12 06:53:13;;;;;;;0.15;0.15;;;7.80;77.70;;;;;;4921138;29;20050;-82
2024/02/12 06:55:40;;;;;;;0.40;0.40;;;7.90;60.90;;;;;;4949565;29;20036;-83
2024/02/12 06:58:07;;;;;;;0.20;0.20;;;7.90;64.70;;;;;;4925871;29;20043;-84
2024/02/12 07:00:35;;;;;;;0.63;0.63;;;7.90;79.80;;;;;;4945765;29;20035;-84
2024/02/12 07:03:05;;;;;;;0.30;0.30;;;7.80;88.90;;;;;;4937183;29;20043;-84
2024/02/12 07:05:31;;;;;;;0.73;0.30;;;7.80;90.40;;;;;;4938045;29;20496;-84
2024/02/12 07:07:58;;;;;;;6.32;1.10;;;7.80;96.50;;;;;;4951057;28;20117;-83
2024/02/12 07:10:24;;;;;;;0.38;0.25;;;7.80;90.00;;;;;;4929047;29;20043;-88
2024/02/12 07:12:51;;;;;;;1.35;0.85;;;7.90;91.10;;;;;;4934616;29;20039;-84
2024/02/12 07:15:17;;;;;;;1.20;0.98;;;7.90;85.20;;;;;;4924028;29;20054;-84
2024/02/12 07:17:46;;;;;;;0.40;0.40;;;7.90;90.80;;;;;;4946705;29;20035;-84
2024/02/12 07:20:13;;;;;;;3.97;1.05;;;8.00;81.10;;;;;;4923213;29;20062;-84
2024/02/12 07:22:39;;;;;;;0.20;0.20;;;8.00;69.70;;;;;;4945743;29;20046;-83
2024/02/12 07:25:05;;;;;;;1.38;1.27;;;8.10;53.30;;;;;;4955880;28;20035;-82
2024/02/12 07:27:31;;;;;;;0.25;0.22;;;8.10;51.70;;;;;;4944244;29;20042;-83
2024/02/12 07:29:58;;;;;;;0.95;0.70;;;8.10;28.40;;;;;;4942809;29;20028;-83
2024/02/12 07:32:24;;;;;;;0.55;0.55;;;8.20;24.80;;;;;;4939410;29;20066;-83
2024/02/12 07:34:51;;;;;;;0.40;0.40;;;8.20;19.20;;;;;;4937747;29;20040;-84
2024/02/12 07:37:17;;;;;;;0.30;0.30;;;8.20;17.30;;;;;;4947522;28;20027;-84
2024/02/12 07:39:43;;;;;;;0.40;0.40;;;8.20;16.20;;;;;;4935610;29;20043;-83
2024/02/12 07:42:10;;;;;;;0.98;0.85;;;8.20;1.00;;;;;;4929120;29;20440;-84
2024/02/12 07:44:37;;;;;;;0.60;0.60;;;8.20;1.00;;;;;;4941450;28;20039;-84
2024/02/12 07:47:05;;;;;;;0.40;0.40;;;8.20;4.40;;;;;;4932134;29;20035;-84
2024/02/12 07:49:32;;;;;;;0.60;0.52;;;8.20;1.00;;;;;;4951758;29;20042;-84
2024/02/12 07:52:01;;;;;;;3.13;0.82;;;8.20;1.00;;;;;;4929306;29;20063;-84
2024/02/12 07:54:29;;;;;;;1.08;0.95;;;8.20;1.00;;;;;;4951397;29;20039;-88
2024/02/12 07:56:55;;;;;;;0.43;0.43;;;8.20;1.00;;;;;;4934859;29;20035;-83
2024/02/12 07:59:23;;;;;;;0.20;0.20;;;8.20;1.20;;;;;;4922952;29;20040;-83
2024/02/12 08:01:51;;;;;;;1.58;0.82;;;8.20;1.00;;;;;;4943366;29;20031;-83
2024/02/12 08:04:19;;;;;;;0.65;0.55;;;8.20;7.40;;;;;;4945077;29;20047;-83
2024/02/12 08:06:45;;;;;;;0.75;0.75;;;8.20;1.80;;;;;;4922799;29;20050;-83
2024/02/12 08:09:11;;;;;;;2.38;0.65;;;8.20;10.60;;;;;;4923605;29;20055;-83
2024/02/12 08:11:40;;;;;;;5.70;1.08;;;8.20;18.00;;;;;;4948811;28;20527;-84
2024/02/12 08:14:09;;;;;;;1.40;0.95;;;8.20;29.70;;;;;;4935594;29;20051;-83
2024/02/12 08:16:35;;;;;;;0.43;0.30;;;8.20;23.20;;;;;;4935863;29;20043;-83
2024/02/12 08:19:01;;;;;;;0.30;0.30;;;8.20;21.40;;;;;;4922407;29;20059;-83
2024/02/12 08:21:28;;;;;;;0.20;0.20;;;8.30;1.00;;;;;;4910355;29;20040;-86
2024/02/12 08:23:54;;;;;;;0.50;0.50;;;8.30;1.00;;;;;;4932107;29;20061;-83
2024/02/12 08:26:22;;;;;;;0.50;0.50;;;8.30;1.00;;;;;;4933986;29;20036;-83
2024/02/12 08:28:48;;;;;;;0.55;0.55;;;8.30;1.00;;;;;;4945937;28;20189;-83
2024/02/12 08:31:17;;;;;;;0.22;0.22;;;8.30;4.40;;;;;;4910067;29;20050;-83
2024/02/12 08:33:44;;;;;;;1.25;0.77;;;8.30;1.00;;;;;;4930585;29;20062;-83
2024/02/12 08:36:10;;;;;;;0.20;0.20;;;8.40;1.00;;;;;;4934159;29;20458;-83
2024/02/12 08:38:36;;;;;;;0.80;0.45;;;8.40;1.00;;;;;;4938415;28;20038;-83
2024/02/12 08:41:03;;;;;;;2.63;1.67;;;8.40;1.00;;;;;;4939644;28;20035;-83
2024/02/12 08:43:30;;;;;;;0.30;0.30;;;8.40;1.00;;;;;;4927941;29;20423;-85
2024/02/12 08:45:56;;;;;;;0.40;0.40;;;8.40;1.00;;;;;;4930606;29;20392;-83
2024/02/12 08:48:22;;;;;;;5.30;1.17;;;8.50;1.00;;;;;;4927852;29;20047;-83
2024/02/12 08:50:49;;;;;;;0.40;0.40;;;8.40;1.00;;;;;;4924495;29;20560;-83
2024/02/12 08:53:16;;;;;;;0.63;0.63;;;8.50;1.00;;;;;;4933516;29;20055;-83
2024/02/12 08:55:42;;;;;;;0.30;0.30;;;8.50;1.00;;;;;;4934326;29;20522;-83
2024/02/12 08:58:11;;;;;;;0.20;0.20;;;8.60;1.00;;;;;;4942402;28;20031;-83
2024/02/12 09:00:37;;;;;;;0.40;0.35;;;8.60;1.00;;;;;;4935588;29;20038;-83
2024/02/12 09:03:04;;;;;;;0.55;0.52;;;8.60;1.00;;;;;;4943359;29;20031;-83
2024/02/12 09:05:31;;;;;;;0.45;0.45;;;8.60;1.00;;;;;;4917670;29;20047;-86
2024/02/12 09:07:57;;;;;;;0.60;0.60;;;8.70;1.00;;;;;;4914501;29;20036;-83
2024/02/12 09:10:24;;;;;;;8.73;0.85;;;8.70;1.00;;;;;;4910488;29;20058;-83
2024/02/12 09:12:51;;;;;;;0.68;0.32;;;8.80;1.00;;;;;;4932378;29;20059;-83
2024/02/12 09:15:17;;;;;;;0.60;0.60;;;8.70;1.00;;;;;;4931893;29;20039;-84
2024/02/12 09:17:44;;;;;;;1.15;0.88;;;8.80;1.00;;;;;;4935444;29;20036;-83
2024/02/12 09:20:14;;;;;;;0.20;0.20;;;8.80;1.00;;;;;;4934559;29;20031;-83
2024/02/12 09:22:40;;;;;;;0.20;0.20;;;8.70;1.00;;;;;;4913930;29;20401;-83
2024/02/12 09:25:11;;;;;;;0.25;0.20;;;8.70;1.00;;;;;;4934989;29;20036;-84
2024/02/12 09:27:38;;;;;;;0.68;0.68;;;8.70;1.00;;;;;;4931624;29;20048;-83
2024/02/12 09:30:09;;;;;;;0.10;0.10;;;8.60;1.00;;;;;;4943507;29;20051;-83
2024/02/12 09:32:38;;;;;;;1.23;1.17;;;8.60;1.00;;;;;;4942791;29;20039;-84
2024/02/12 09:35:06;;;;;;;1.13;1.05;;;8.50;6.70;;;;;;4927946;29;20038;-83
2024/02/12 09:37:33;;;;;;;1.60;1.00;;;8.50;29.70;;;;;;4921451;29;20048;-85
2024/02/12 09:40:03;;;;;;;1.40;1.00;;;8.50;33.60;;;;;;4934732;29;20043;-83
2024/02/12 09:42:33;;;;;;;0.20;0.20;;;8.50;46.30;;;;;;4909640;29;20055;-84
2024/02/12 09:45:00;;;;;;;0.35;0.35;;;8.50;52.50;;;;;;4938456;29;20388;-83
2024/02/12 09:47:32;;;;;;;0.30;0.30;;;8.50;80.00;;;;;;4917737;29;20381;-83
2024/02/12 09:49:58;;;;;;;1.83;1.17;;;8.50;98.50;;;;;;4929040;29;20050;-83
2024/02/12 09:52:26;;;;;;;0.40;0.40;;;8.40;90.60;;;;;;4907469;29;20059;-84
2024/02/12 09:54:53;;;;;;;0.32;0.32;;;8.40;52.60;;;;;;4923588;29;20051;-84
2024/02/12 09:57:20;;;;;;;0.52;0.38;;;8.40;66.50;;;;;;4931696;29;20039;-84
2024/02/12 09:59:47;;;;;;;0.32;0.32;;;8.50;52.10;;;;;;4942714;28;20044;-85
2024/02/12 10:02:13;;;;;;;1.23;0.63;;;8.40;24.30;;;;;;4934615;29;20042;-83
2024/02/12 10:04:40;;;;;;;0.82;0.30;;;8.50;33.10;;;;;;4932923;29;20046;-84
2024/02/12 10:07:06;;;;;;;0.25;0.22;;;8.40;15.50;;;;;;4935694;29;20051;-84
2024/02/12 10:09:32;;;;;;;0.40;0.35;;;8.40;21.30;;;;;;4936288;29;20042;-84
2024/02/12 10:12:09;;;;;;;1.05;0.95;;;8.50;10.20;;;;;;4913939;29;20481;-84
2024/02/12 10:14:36;;;;;;;0.28;0.28;;;8.50;11.40;;;;;;4917491;29;20066;-89
2024/02/12 10:17:02;;;;;;;1.13;0.93;;;8.50;9.20;;;;;;4926731;29;20048;-84
2024/02/12 10:19:28;;;;;;;0.90;0.43;;;8.60;1.00;;;;;;4935729;29;20894;-83
2024/02/12 10:21:55;;;;;;;0.90;0.73;;;8.60;1.00;;;;;;4939649;29;20047;-84
2024/02/12 10:24:21;;;;;;;2.70;1.40;;;8.70;1.00;;;;;;4919705;29;20092;-84
2024/02/12 10:26:51;;;;;;;0.30;0.30;;;8.70;1.00;;;;;;4933241;29;20045;-84
2024/02/12 10:29:18;;;;;;;0.88;0.70;;;8.80;1.00;;;;;;4916862;29;20384;-83
2024/02/12 10:31:48;;;;;;;0.65;0.50;;;8.90;1.00;;;;;;4936322;29;20050;-83
2024/02/12 10:34:17;;;;;;;0.20;0.20;;;8.90;1.00;;;;;;4934622;29;20039;-83
2024/02/12 10:36:47;;;;;;;0.88;0.57;;;8.90;1.00;;;;;;4933708;29;20055;-83
2024/02/12 10:39:17;;;;;;;0.25;0.25;;;8.90;1.00;;;;;;4927244;29;20031;-83
2024/02/12 10:41:50;;;;;;;2.17;0.85;;;9.00;1.00;;;;;;4931086;29;20040;-84
2024/02/12 10:44:18;;;;;;;0.35;0.35;;;9.00;1.00;;;;;;4910956;29;20175;-85
2024/02/12 10:46:46;;;;;;;0.20;0.20;;;9.10;1.00;;;;;;4933851;29;20473;-84
2024/02/12 10:49:14;;;;;;;0.20;0.20;;;9.10;1.00;;;;;;4922741;29;20032;-84
2024/02/12 10:51:42;;;;;;;0.13;0.13;;;9.20;1.00;;;;;;4935137;29;20043;-85
2024/02/12 10:54:08;;;;;;;0.40;0.40;;;9.20;1.00;;;;;;4933116;29;20392;-84
2024/02/12 10:56:36;;;;;;;0.35;0.35;;;9.30;1.00;;;;;;4945571;29;20039;-85
2024/02/12 10:59:02;;;;;;;0.30;0.30;;;9.30;1.00;;;;;;4942702;28;20058;-83
2024/02/12 11:01:29;;;;;;;0.30;0.30;;;9.50;1.00;;;;;;4904753;29;20050;-83
2024/02/12 11:03:59;;;;;;;0.65;0.65;;;9.60;1.00;;;;;;4942281;29;20046;-83
2024/02/12 11:06:27;;;;;;;0.57;0.47;;;9.70;1.00;;;;;;4919155;29;20052;-84
2024/02/12 11:08:54;;;;;;;0.57;0.57;;;9.70;99.90;;;;;;4936147;29;20047;-84
2024/02/12 11:11:23;;;;;;;0.60;0.60;;;9.60;99.90;;;;;;4939194;28;20042;-84
2024/02/12 11:14:05;;;;;;;0.63;0.63;;;9.60;99.90;;;;;;4920205;29;20385;-84
2024/02/12 11:16:38;;;;;;;0.52;0.52;;;9.60;99.90;;;;;;4924779;29;20040;-84
2024/02/12 11:19:05;;;;;;;0.20;0.20;;;9.60;99.90;;;;;;4940136;29;20036;-84
2024/02/12 11:21:35;;;;;;;1.80;0.45;;;9.60;99.90;;;;;;4933115;29;20127;-84
2024/02/12 11:24:06;;;;;;;0.68;0.50;;;9.60;99.90;;;;;;4947742;29;20035;-84
2024/02/12 11:26:39;;;;;;;;;;;9.70;99.90;;;;;;4925604;29;20047;-83
2024/02/12 11:29:06;;;;;;;0.10;0.10;;;9.70;99.90;;;;;;4927730;29;19921;-84
2024/02/12 11:31:40;;;;;;;0.73;0.73;;;9.70;99.90;;;;;;4929705;29;20047;-83
2024/02/12 11:34:20;;;;;;;10.25;1.75;;;9.70;99.90;;;;;;4940992;29;20048;-83
2024/02/12 11:37:00;;;;;;;0.38;0.38;;;9.80;99.90;;;;;;4928183;29;20052;-84
2024/02/12 11:39:26;;;;;;;0.30;0.30;;;9.80;99.90;;;;;;4914006;29;20055;-83
2024/02/12 11:41:52;;;;;;;0.22;0.22;;;9.80;99.90;;;;;;4928968;29;20035;-82
2024/02/12 11:44:18;;;;;;;0.45;0.45;;;9.70;99.90;;;;;;4925716;29;20039;-82
2024/02/12 11:46:55;;;;;;;0.10;0.10;;;9.60;99.90;;;;;;4931038;29;20036;-82
2024/02/12 11:49:21;;;;;;;1.10;0.40;;;9.60;99.90;;;;;;4932900;29;20043;-82
2024/02/12 11:51:49;;;;;;;1.40;0.57;;;9.70;99.90;;;;;;4903715;29;20055;-82
2024/02/12 11:54:16;;;;;;;1.27;0.47;;;9.60;99.90;;;;;;4936521;29;20409;-79
2024/02/12 11:56:43;;;;;;;0.43;0.43;;;9.50;99.90;;;;;;4925504;29;20035;-82
2024/02/12 11:59:10;;;;;;;1.17;1.00;;;9.50;99.90;;;;;;4930456;29;20396;-78
2024/02/12 12:01:37;;;;;;;0.38;0.38;;;9.50;99.90;;;;;;4936631;29;20043;-81
2024/02/12 12:04:05;;;;;;;0.28;0.28;;;9.40;99.90;;;;;;4923919;29;20054;-81
2024/02/12 12:06:33;;;;;;;0.22;0.22;;;9.50;99.90;;;;;;4926587;29;20461;-78
2024/02/12 12:09:00;;;;;;;9.85;0.70;;;9.50;99.90;;;;;;4942305;29;20404;-81
2024/02/12 12:11:26;;;;;;;1.20;1.20;;;9.60;99.90;;;;;;4927703;29;20059;-81
2024/02/12 12:13:59;;;;;;;0.10;0.10;;;9.50;99.90;;;;;;4925942;29;20059;-81
2024/02/12 12:16:33;;;;;;;0.10;0.10;;;9.60;99.90;;;;;;4921772;29;20044;-80
2024/02/12 12:19:06;;;;;;;1.08;0.68;;;9.60;99.90;;;;;;4921272;29;20051;-80
2024/02/12 12:21:34;;;;;;;0.15;0.15;;;9.50;99.90;;;;;;4926979;29;20039;-80
2024/02/12 12:24:03;;;;;;;0.47;0.47;;;9.60;99.90;;;;;;4933362;29;20044;-82
2024/02/12 12:26:30;;;;;;;0.20;0.20;;;9.50;99.90;;;;;;4936641;29;20070;-82
2024/02/12 12:28:56;;;;;;;0.20;0.20;;;9.50;99.90;;;;;;4935940;29;20055;-81
2024/02/12 12:31:22;;;;;;;0.10;0.10;;;9.50;99.90;;;;;;4932725;29;20487;-82
2024/02/12 12:33:51;;;;;;;0.30;0.30;;;9.50;99.90;;;;;;4939182;28;20036;-81
2024/02/12 12:36:20;;;;;;;0.80;0.80;;;9.50;99.90;;;;;;4932844;29;20039;-82
2024/02/12 12:38:46;;;;;;;0.45;0.25;;;9.60;99.90;;;;;;4927652;29;20389;-81
2024/02/12 12:41:12;;;;;;;0.30;0.25;;;9.60;99.90;;;;;;4939107;28;20043;-80
2024/02/12 12:43:38;;;;;;;0.90;0.45;;;9.60;99.90;;;;;;4920185;29;20044;-81
2024/02/12 12:46:06;;;;;;;0.25;0.25;;;9.60;99.90;;;;;;4915678;29;20039;-82
2024/02/12 12:48:32;;;;;;;0.22;0.22;;;9.60;99.90;;;;;;4937245;29;20051;-80
2024/02/12 12:51:00;;;;;;;0.20;0.20;;;9.70;99.90;;;;;;4915756;29;20054;-81
2024/02/12 12:53:27;;;;;;;4.13;0.40;;;9.70;99.90;;;;;;4927532;29;20046;-82
2024/02/12 12:55:54;;;;;;;0.10;0.10;;;9.70;99.90;;;;;;4928314;29;20047;-82
2024/02/12 12:58:20;;;;;;;0.38;0.38;;;9.80;99.90;;;;;;4945589;29;20089;-81
2024/02/12 13:00:46;;;;;;;0.20;0.20;;;9.80;99.90;;;;;;4923352;29;20047;-81
2024/02/12 13:03:13;;;;;;;0.75;0.63;;;9.90;99.90;;;;;;4925349;29;20038;-81
2024/02/12 13:05:42;;;;;;;0.10;0.10;;;9.80;99.90;;;;;;4935730;29;20039;-82
2024/02/12 13:08:10;;;;;;;0.68;0.68;;;9.80;99.90;;;;;;4932655;29;20367;-82
2024/02/12 13:10:41;;;;;;;0.30;0.30;;;9.90;99.90;;;;;;4911499;29;20447;-81
2024/02/12 13:13:11;;;;;;;1.65;1.00;;;9.80;99.90;;;;;;4935795;29;20059;-82
2024/02/12 13:15:41;;;;;;;0.67;0.50;;;9.70;99.90;;;;;;4916989;29;20507;-82